sensor_id;sensor_type;location;lat;lon;timestamp;P1;durP1;ratioP1;P2;durP2;ratioP2
51122;SDS011;37162;41.724;13.346;2023-08-06T00:00:50;1.77;;;1.00;;
51122;SDS011;37162;41.724;13.346;2023-08-06T00:03:15;1.23;;;0.85;;
51122;SDS011;37162;41.724;13.346;2023-08-06T00:05:41;1.52;;;1.00;;
51122;SDS011;37162;41.724;13.346;2023-08-06T00:08:10;1.88;;;1.02;;
51122;SDS011;37162;41.724;13.346;2023-08-06T00:10:36;1.10;;;0.70;;
51122;SDS011;37162;41.724;13.346;2023-08-06T00:13:01;1.98;;;1.00;;
51122;SDS011;37162;41.724;13.346;2023-08-06T00:15:27;2.83;;;0.70;;
51122;SDS011;37162;41.724;13.346;2023-08-06T00:17:52;1.00;;;0.88;;
51122;SDS011;37162;41.724;13.346;2023-08-06T00:20:17;1.45;;;1.02;;
51122;SDS011;37162;41.724;13.346;2023-08-06T00:22:43;1.92;;;0.80;;
51122;SDS011;37162;41.724;13.346;2023-08-06T00:25:08;1.92;;;0.90;;
51122;SDS011;37162;41.724;13.346;2023-08-06T00:27:34;5.03;;;1.00;;
51122;SDS011;37162;41.724;13.346;2023-08-06T00:29:59;1.95;;;0.95;;
51122;SDS011;37162;41.724;13.346;2023-08-06T00:32:25;1.38;;;1.02;;
51122;SDS011;37162;41.724;13.346;2023-08-06T00:34:50;1.45;;;1.02;;
51122;SDS011;37162;41.724;13.346;2023-08-06T00:37:16;2.05;;;0.75;;
51122;SDS011;37162;41.724;13.346;2023-08-06T00:39:42;2.40;;;1.02;;
51122;SDS011;37162;41.724;13.346;2023-08-06T00:42:08;1.10;;;0.75;;
51122;SDS011;37162;41.724;13.346;2023-08-06T00:44:34;2.15;;;0.90;;
51122;SDS011;37162;41.724;13.346;2023-08-06T00:46:59;1.60;;;0.80;;
51122;SDS011;37162;41.724;13.346;2023-08-06T00:49:25;1.70;;;0.90;;
51122;SDS011;37162;41.724;13.346;2023-08-06T00:51:51;1.45;;;0.75;;
51122;SDS011;37162;41.724;13.346;2023-08-06T00:54:17;0.77;;;0.75;;
51122;SDS011;37162;41.724;13.346;2023-08-06T00:56:42;1.40;;;0.88;;
51122;SDS011;37162;41.724;13.346;2023-08-06T00:59:08;1.30;;;1.10;;
51122;SDS011;37162;41.724;13.346;2023-08-06T01:01:35;1.67;;;1.00;;
51122;SDS011;37162;41.724;13.346;2023-08-06T01:04:01;1.08;;;0.80;;
51122;SDS011;37162;41.724;13.346;2023-08-06T01:06:33;0.70;;;0.70;;
51122;SDS011;37162;41.724;13.346;2023-08-06T01:12:34;4.82;;;0.98;;
51122;SDS011;37162;41.724;13.346;2023-08-06T01:15:04;1.25;;;0.73;;
51122;SDS011;37162;41.724;13.346;2023-08-06T01:17:45;1.23;;;0.75;;
51122;SDS011;37162;41.724;13.346;2023-08-06T01:20:10;0.80;;;0.80;;
51122;SDS011;37162;41.724;13.346;2023-08-06T01:22:36;1.98;;;0.88;;
51122;SDS011;37162;41.724;13.346;2023-08-06T01:25:01;1.00;;;0.90;;
51122;SDS011;37162;41.724;13.346;2023-08-06T01:27:32;1.73;;;1.00;;
51122;SDS011;37162;41.724;13.346;2023-08-06T01:30:07;1.52;;;0.80;;
51122;SDS011;37162;41.724;13.346;2023-08-06T01:32:45;3.13;;;0.95;;
51122;SDS011;37162;41.724;13.346;2023-08-06T01:35:15;3.28;;;1.02;;
51122;SDS011;37162;41.724;13.346;2023-08-06T01:37:42;4.05;;;1.13;;
51122;SDS011;37162;41.724;13.346;2023-08-06T01:40:12;1.90;;;0.85;;
51122;SDS011;37162;41.724;13.346;2023-08-06T01:42:38;2.25;;;1.10;;
51122;SDS011;37162;41.724;13.346;2023-08-06T01:45:04;1.20;;;0.80;;
51122;SDS011;37162;41.724;13.346;2023-08-06T01:47:31;1.77;;;0.98;;
51122;SDS011;37162;41.724;13.346;2023-08-06T01:49:56;2.70;;;1.13;;
51122;SDS011;37162;41.724;13.346;2023-08-06T01:52:21;0.65;;;0.60;;
51122;SDS011;37162;41.724;13.346;2023-08-06T01:54:47;2.17;;;0.77;;
51122;SDS011;37162;41.724;13.346;2023-08-06T01:57:12;4.75;;;0.90;;
51122;SDS011;37162;41.724;13.346;2023-08-06T01:59:38;4.38;;;0.70;;
51122;SDS011;37162;41.724;13.346;2023-08-06T02:02:03;2.05;;;0.70;;
51122;SDS011;37162;41.724;13.346;2023-08-06T02:04:29;2.15;;;0.90;;
51122;SDS011;37162;41.724;13.346;2023-08-06T02:06:54;1.23;;;0.90;;
51122;SDS011;37162;41.724;13.346;2023-08-06T02:09:20;1.58;;;0.90;;
51122;SDS011;37162;41.724;13.346;2023-08-06T02:16:45;2.47;;;1.00;;
51122;SDS011;37162;41.724;13.346;2023-08-06T02:19:11;1.52;;;0.88;;
51122;SDS011;37162;41.724;13.346;2023-08-06T02:21:36;0.88;;;0.73;;
51122;SDS011;37162;41.724;13.346;2023-08-06T02:24:02;1.90;;;0.73;;
51122;SDS011;37162;41.724;13.346;2023-08-06T02:26:27;2.42;;;0.80;;
51122;SDS011;37162;41.724;13.346;2023-08-06T02:28:53;2.17;;;0.85;;
51122;SDS011;37162;41.724;13.346;2023-08-06T02:31:18;2.35;;;1.10;;
51122;SDS011;37162;41.724;13.346;2023-08-06T02:33:44;1.15;;;0.90;;
51122;SDS011;37162;41.724;13.346;2023-08-06T02:36:09;2.28;;;0.70;;
51122;SDS011;37162;41.724;13.346;2023-08-06T02:38:34;1.13;;;0.82;;
51122;SDS011;37162;41.724;13.346;2023-08-06T02:41:03;2.65;;;0.63;;
51122;SDS011;37162;41.724;13.346;2023-08-06T02:43:28;2.63;;;0.95;;
51122;SDS011;37162;41.724;13.346;2023-08-06T02:45:57;3.95;;;0.90;;
51122;SDS011;37162;41.724;13.346;2023-08-06T02:48:23;2.25;;;0.90;;
51122;SDS011;37162;41.724;13.346;2023-08-06T02:50:49;0.95;;;0.60;;
51122;SDS011;37162;41.724;13.346;2023-08-06T02:53:14;1.13;;;0.80;;
51122;SDS011;37162;41.724;13.346;2023-08-06T02:55:44;1.77;;;0.77;;
51122;SDS011;37162;41.724;13.346;2023-08-06T02:58:12;1.00;;;0.63;;
51122;SDS011;37162;41.724;13.346;2023-08-06T03:00:38;0.98;;;0.98;;
51122;SDS011;37162;41.724;13.346;2023-08-06T03:03:03;1.35;;;0.80;;
51122;SDS011;37162;41.724;13.346;2023-08-06T03:05:29;1.45;;;0.80;;
51122;SDS011;37162;41.724;13.346;2023-08-06T03:07:54;1.77;;;0.90;;
51122;SDS011;37162;41.724;13.346;2023-08-06T03:10:20;1.17;;;0.82;;
51122;SDS011;37162;41.724;13.346;2023-08-06T03:12:45;1.80;;;1.08;;
51122;SDS011;37162;41.724;13.346;2023-08-06T03:15:11;1.30;;;0.80;;
51122;SDS011;37162;41.724;13.346;2023-08-06T03:17:36;2.42;;;0.95;;
51122;SDS011;37162;41.724;13.346;2023-08-06T03:20:02;1.90;;;0.77;;
51122;SDS011;37162;41.724;13.346;2023-08-06T03:22:27;1.55;;;0.77;;
51122;SDS011;37162;41.724;13.346;2023-08-06T03:24:52;3.25;;;1.02;;
51122;SDS011;37162;41.724;13.346;2023-08-06T03:27:18;1.23;;;0.80;;
51122;SDS011;37162;41.724;13.346;2023-08-06T03:29:43;1.95;;;1.17;;
51122;SDS011;37162;41.724;13.346;2023-08-06T03:32:09;1.33;;;0.68;;
51122;SDS011;37162;41.724;13.346;2023-08-06T03:34:34;0.98;;;0.75;;
51122;SDS011;37162;41.724;13.346;2023-08-06T03:37:00;3.85;;;0.90;;
51122;SDS011;37162;41.724;13.346;2023-08-06T03:39:25;2.33;;;1.10;;
51122;SDS011;37162;41.724;13.346;2023-08-06T03:41:51;2.30;;;1.45;;
51122;SDS011;37162;41.724;13.346;2023-08-06T03:44:16;4.88;;;1.45;;
51122;SDS011;37162;41.724;13.346;2023-08-06T03:46:41;1.85;;;1.00;;
51122;SDS011;37162;41.724;13.346;2023-08-06T03:49:07;1.25;;;0.95;;
51122;SDS011;37162;41.724;13.346;2023-08-06T03:51:32;1.27;;;0.93;;
51122;SDS011;37162;41.724;13.346;2023-08-06T03:53:58;1.13;;;0.75;;
51122;SDS011;37162;41.724;13.346;2023-08-06T03:56:23;1.58;;;0.82;;
51122;SDS011;37162;41.724;13.346;2023-08-06T03:58:48;1.42;;;1.15;;
51122;SDS011;37162;41.724;13.346;2023-08-06T04:01:14;0.90;;;0.80;;
51122;SDS011;37162;41.724;13.346;2023-08-06T04:03:40;2.42;;;0.90;;
51122;SDS011;37162;41.724;13.346;2023-08-06T04:06:05;2.10;;;0.93;;
51122;SDS011;37162;41.724;13.346;2023-08-06T04:08:31;6.00;;;1.52;;
51122;SDS011;37162;41.724;13.346;2023-08-06T04:10:57;2.17;;;0.82;;
51122;SDS011;37162;41.724;13.346;2023-08-06T04:13:22;0.80;;;0.80;;
51122;SDS011;37162;41.724;13.346;2023-08-06T04:15:47;1.35;;;0.77;;
51122;SDS011;37162;41.724;13.346;2023-08-06T04:18:13;1.20;;;1.10;;
51122;SDS011;37162;41.724;13.346;2023-08-06T04:20:43;1.10;;;0.90;;
51122;SDS011;37162;41.724;13.346;2023-08-06T04:23:10;1.10;;;0.90;;
51122;SDS011;37162;41.724;13.346;2023-08-06T04:25:35;3.25;;;0.98;;
51122;SDS011;37162;41.724;13.346;2023-08-06T04:28:01;2.97;;;1.00;;
51122;SDS011;37162;41.724;13.346;2023-08-06T04:30:26;3.35;;;0.85;;
51122;SDS011;37162;41.724;13.346;2023-08-06T04:32:51;2.38;;;0.93;;
51122;SDS011;37162;41.724;13.346;2023-08-06T04:35:17;1.20;;;0.88;;
51122;SDS011;37162;41.724;13.346;2023-08-06T04:37:42;1.23;;;0.80;;
51122;SDS011;37162;41.724;13.346;2023-08-06T04:40:08;1.10;;;0.70;;
51122;SDS011;37162;41.724;13.346;2023-08-06T04:42:34;2.63;;;0.90;;
51122;SDS011;37162;41.724;13.346;2023-08-06T04:45:00;1.70;;;0.80;;
51122;SDS011;37162;41.724;13.346;2023-08-06T04:47:26;7.57;;;4.53;;
51122;SDS011;37162;41.724;13.346;2023-08-06T04:49:52;12.57;;;7.13;;
51122;SDS011;37162;41.724;13.346;2023-08-06T04:52:18;15.55;;;8.55;;
51122;SDS011;37162;41.724;13.346;2023-08-06T04:54:43;18.15;;;9.63;;
51122;SDS011;37162;41.724;13.346;2023-08-06T04:57:09;15.20;;;9.38;;
51122;SDS011;37162;41.724;13.346;2023-08-06T04:59:35;29.00;;;14.52;;
51122;SDS011;37162;41.724;13.346;2023-08-06T05:02:00;15.02;;;8.15;;
51122;SDS011;37162;41.724;13.346;2023-08-06T05:04:26;13.93;;;8.00;;
51122;SDS011;37162;41.724;13.346;2023-08-06T05:06:52;10.95;;;6.70;;
51122;SDS011;37162;41.724;13.346;2023-08-06T05:09:17;13.68;;;8.23;;
51122;SDS011;37162;41.724;13.346;2023-08-06T05:11:43;18.88;;;7.57;;
51122;SDS011;37162;41.724;13.346;2023-08-06T05:14:08;11.50;;;6.80;;
51122;SDS011;37162;41.724;13.346;2023-08-06T05:16:34;14.82;;;6.15;;
51122;SDS011;37162;41.724;13.346;2023-08-06T05:18:59;11.50;;;6.47;;
51122;SDS011;37162;41.724;13.346;2023-08-06T05:21:25;11.45;;;5.93;;
51122;SDS011;37162;41.724;13.346;2023-08-06T05:23:50;8.15;;;5.63;;
51122;SDS011;37162;41.724;13.346;2023-08-06T05:26:16;8.20;;;4.55;;
51122;SDS011;37162;41.724;13.346;2023-08-06T05:28:43;10.65;;;5.18;;
51122;SDS011;37162;41.724;13.346;2023-08-06T05:31:09;8.57;;;5.07;;
51122;SDS011;37162;41.724;13.346;2023-08-06T05:33:35;7.78;;;4.72;;
51122;SDS011;37162;41.724;13.346;2023-08-06T05:36:00;4.28;;;3.10;;
51122;SDS011;37162;41.724;13.346;2023-08-06T05:38:26;6.15;;;3.97;;
51122;SDS011;37162;41.724;13.346;2023-08-06T05:40:51;8.25;;;3.92;;
51122;SDS011;37162;41.724;13.346;2023-08-06T05:43:17;5.25;;;3.53;;
51122;SDS011;37162;41.724;13.346;2023-08-06T05:45:45;7.50;;;3.65;;
51122;SDS011;37162;41.724;13.346;2023-08-06T05:48:11;6.68;;;2.95;;
51122;SDS011;37162;41.724;13.346;2023-08-06T05:50:37;4.38;;;3.25;;
51122;SDS011;37162;41.724;13.346;2023-08-06T05:53:02;5.75;;;3.17;;
51122;SDS011;37162;41.724;13.346;2023-08-06T05:55:28;4.93;;;3.20;;
51122;SDS011;37162;41.724;13.346;2023-08-06T05:57:53;5.28;;;2.72;;
51122;SDS011;37162;41.724;13.346;2023-08-06T06:00:20;4.05;;;2.50;;
51122;SDS011;37162;41.724;13.346;2023-08-06T06:02:46;7.53;;;3.50;;
51122;SDS011;37162;41.724;13.346;2023-08-06T06:05:11;6.13;;;3.03;;
51122;SDS011;37162;41.724;13.346;2023-08-06T06:07:37;3.03;;;2.25;;
51122;SDS011;37162;41.724;13.346;2023-08-06T06:10:02;1.77;;;1.50;;
51122;SDS011;37162;41.724;13.346;2023-08-06T06:12:28;4.07;;;1.92;;
51122;SDS011;37162;41.724;13.346;2023-08-06T06:14:53;8.40;;;3.05;;
51122;SDS011;37162;41.724;13.346;2023-08-06T06:17:19;2.50;;;1.65;;
51122;SDS011;37162;41.724;13.346;2023-08-06T06:19:44;2.85;;;1.67;;
51122;SDS011;37162;41.724;13.346;2023-08-06T06:22:10;2.10;;;1.60;;
51122;SDS011;37162;41.724;13.346;2023-08-06T06:24:35;3.90;;;2.10;;
51122;SDS011;37162;41.724;13.346;2023-08-06T06:27:00;2.90;;;2.20;;
51122;SDS011;37162;41.724;13.346;2023-08-06T06:29:26;3.35;;;1.85;;
51122;SDS011;37162;41.724;13.346;2023-08-06T06:31:51;2.35;;;1.70;;
51122;SDS011;37162;41.724;13.346;2023-08-06T06:34:17;1.58;;;1.27;;
51122;SDS011;37162;41.724;13.346;2023-08-06T06:36:42;1.80;;;1.38;;
51122;SDS011;37162;41.724;13.346;2023-08-06T06:39:08;2.60;;;1.50;;
51122;SDS011;37162;41.724;13.346;2023-08-06T06:41:33;4.13;;;1.60;;
51122;SDS011;37162;41.724;13.346;2023-08-06T06:43:59;2.65;;;1.67;;
51122;SDS011;37162;41.724;13.346;2023-08-06T06:46:24;2.72;;;1.75;;
51122;SDS011;37162;41.724;13.346;2023-08-06T06:48:49;3.30;;;1.75;;
51122;SDS011;37162;41.724;13.346;2023-08-06T06:51:15;3.75;;;1.75;;
51122;SDS011;37162;41.724;13.346;2023-08-06T06:53:40;3.25;;;1.50;;
51122;SDS011;37162;41.724;13.346;2023-08-06T06:56:06;2.03;;;1.70;;
51122;SDS011;37162;41.724;13.346;2023-08-06T06:58:32;4.88;;;2.22;;
51122;SDS011;37162;41.724;13.346;2023-08-06T07:00:57;3.50;;;1.33;;
51122;SDS011;37162;41.724;13.346;2023-08-06T07:03:23;4.85;;;2.08;;
51122;SDS011;37162;41.724;13.346;2023-08-06T07:05:49;3.05;;;1.80;;
51122;SDS011;37162;41.724;13.346;2023-08-06T07:08:15;5.05;;;1.67;;
51122;SDS011;37162;41.724;13.346;2023-08-06T07:10:41;2.58;;;1.38;;
51122;SDS011;37162;41.724;13.346;2023-08-06T07:13:07;3.22;;;1.42;;
51122;SDS011;37162;41.724;13.346;2023-08-06T07:15:33;2.08;;;1.50;;
51122;SDS011;37162;41.724;13.346;2023-08-06T07:17:58;2.38;;;1.60;;
51122;SDS011;37162;41.724;13.346;2023-08-06T07:20:24;2.63;;;1.80;;
51122;SDS011;37162;41.724;13.346;2023-08-06T07:22:49;2.33;;;1.45;;
51122;SDS011;37162;41.724;13.346;2023-08-06T07:25:15;2.58;;;1.65;;
51122;SDS011;37162;41.724;13.346;2023-08-06T07:27:41;3.30;;;1.80;;
51122;SDS011;37162;41.724;13.346;2023-08-06T07:30:07;2.05;;;1.45;;
51122;SDS011;37162;41.724;13.346;2023-08-06T07:32:33;3.97;;;1.83;;
51122;SDS011;37162;41.724;13.346;2023-08-06T07:34:59;5.05;;;1.55;;
51122;SDS011;37162;41.724;13.346;2023-08-06T07:37:28;4.20;;;1.55;;
51122;SDS011;37162;41.724;13.346;2023-08-06T07:39:55;3.50;;;1.65;;
51122;SDS011;37162;41.724;13.346;2023-08-06T07:42:20;11.20;;;1.80;;
51122;SDS011;37162;41.724;13.346;2023-08-06T07:44:51;5.07;;;2.15;;
51122;SDS011;37162;41.724;13.346;2023-08-06T07:47:23;4.88;;;1.85;;
51122;SDS011;37162;41.724;13.346;2023-08-06T07:49:48;8.35;;;1.90;;
51122;SDS011;37162;41.724;13.346;2023-08-06T07:52:14;10.98;;;2.20;;
51122;SDS011;37162;41.724;13.346;2023-08-06T07:54:39;4.97;;;2.22;;
51122;SDS011;37162;41.724;13.346;2023-08-06T07:57:05;4.35;;;2.00;;
51122;SDS011;37162;41.724;13.346;2023-08-06T07:59:31;12.10;;;1.88;;
51122;SDS011;37162;41.724;13.346;2023-08-06T08:01:57;9.55;;;1.88;;
51122;SDS011;37162;41.724;13.346;2023-08-06T08:04:23;7.68;;;1.58;;
51122;SDS011;37162;41.724;13.346;2023-08-06T08:06:48;6.88;;;2.33;;
51122;SDS011;37162;41.724;13.346;2023-08-06T08:09:14;7.43;;;1.48;;
51122;SDS011;37162;41.724;13.346;2023-08-06T08:11:40;2.88;;;1.55;;
51122;SDS011;37162;41.724;13.346;2023-08-06T08:14:06;7.65;;;1.92;;
51122;SDS011;37162;41.724;13.346;2023-08-06T08:16:31;2.25;;;1.30;;
51122;SDS011;37162;41.724;13.346;2023-08-06T08:18:57;5.75;;;1.77;;
51122;SDS011;37162;41.724;13.346;2023-08-06T08:21:22;8.32;;;2.10;;
51122;SDS011;37162;41.724;13.346;2023-08-06T08:23:49;5.05;;;2.03;;
51122;SDS011;37162;41.724;13.346;2023-08-06T08:26:15;3.80;;;1.52;;
51122;SDS011;37162;41.724;13.346;2023-08-06T08:28:40;7.75;;;1.98;;
51122;SDS011;37162;41.724;13.346;2023-08-06T08:31:09;3.58;;;1.60;;
51122;SDS011;37162;41.724;13.346;2023-08-06T08:36:11;4.05;;;1.65;;
51122;SDS011;37162;41.724;13.346;2023-08-06T08:38:36;2.17;;;1.27;;
51122;SDS011;37162;41.724;13.346;2023-08-06T08:41:02;2.92;;;1.70;;
51122;SDS011;37162;41.724;13.346;2023-08-06T08:43:27;2.25;;;1.33;;
51122;SDS011;37162;41.724;13.346;2023-08-06T08:45:54;3.38;;;1.77;;
51122;SDS011;37162;41.724;13.346;2023-08-06T08:48:24;3.30;;;1.67;;
51122;SDS011;37162;41.724;13.346;2023-08-06T08:50:51;2.97;;;1.58;;
51122;SDS011;37162;41.724;13.346;2023-08-06T08:53:17;1.77;;;1.48;;
51122;SDS011;37162;41.724;13.346;2023-08-06T08:55:49;2.60;;;1.50;;
51122;SDS011;37162;41.724;13.346;2023-08-06T08:58:15;3.30;;;1.63;;
51122;SDS011;37162;41.724;13.346;2023-08-06T09:00:47;1.80;;;1.50;;
51122;SDS011;37162;41.724;13.346;2023-08-06T09:03:13;1.85;;;1.17;;
51122;SDS011;37162;41.724;13.346;2023-08-06T09:05:40;2.67;;;1.27;;
51122;SDS011;37162;41.724;13.346;2023-08-06T09:08:10;3.47;;;1.60;;
51122;SDS011;37162;41.724;13.346;2023-08-06T09:10:38;3.63;;;1.30;;
51122;SDS011;37162;41.724;13.346;2023-08-06T09:13:06;3.40;;;1.30;;
51122;SDS011;37162;41.724;13.346;2023-08-06T09:15:31;3.45;;;1.50;;
51122;SDS011;37162;41.724;13.346;2023-08-06T09:17:58;0.80;;;0.75;;
51122;SDS011;37162;41.724;13.346;2023-08-06T09:20:23;2.05;;;1.55;;
51122;SDS011;37162;41.724;13.346;2023-08-06T09:22:49;2.00;;;1.33;;
51122;SDS011;37162;41.724;13.346;2023-08-06T09:25:22;1.75;;;1.15;;
51122;SDS011;37162;41.724;13.346;2023-08-06T09:27:51;1.23;;;1.10;;
51122;SDS011;37162;41.724;13.346;2023-08-06T09:30:33;1.52;;;1.00;;
51122;SDS011;37162;41.724;13.346;2023-08-06T09:32:59;2.85;;;0.90;;
51122;SDS011;37162;41.724;13.346;2023-08-06T09:35:28;1.88;;;1.00;;
51122;SDS011;37162;41.724;13.346;2023-08-06T09:37:54;2.08;;;1.25;;
51122;SDS011;37162;41.724;13.346;2023-08-06T09:42:55;2.45;;;1.00;;
51122;SDS011;37162;41.724;13.346;2023-08-06T09:45:22;1.05;;;0.82;;
51122;SDS011;37162;41.724;13.346;2023-08-06T09:47:52;1.73;;;0.90;;
51122;SDS011;37162;41.724;13.346;2023-08-06T09:50:20;2.08;;;0.90;;
51122;SDS011;37162;41.724;13.346;2023-08-06T09:52:46;3.05;;;1.13;;
51122;SDS011;37162;41.724;13.346;2023-08-06T09:57:48;0.88;;;0.77;;
51122;SDS011;37162;41.724;13.346;2023-08-06T10:00:15;1.60;;;0.98;;
51122;SDS011;37162;41.724;13.346;2023-08-06T10:02:41;3.38;;;1.08;;
51122;SDS011;37162;41.724;13.346;2023-08-06T10:05:08;1.50;;;0.80;;
51122;SDS011;37162;41.724;13.346;2023-08-06T10:12:44;1.10;;;0.90;;
51122;SDS011;37162;41.724;13.346;2023-08-06T10:15:16;2.08;;;1.20;;
51122;SDS011;37162;41.724;13.346;2023-08-06T10:17:50;1.17;;;0.90;;
51122;SDS011;37162;41.724;13.346;2023-08-06T10:20:19;1.92;;;1.15;;
51122;SDS011;37162;41.724;13.346;2023-08-06T10:22:57;4.07;;;1.10;;
51122;SDS011;37162;41.724;13.346;2023-08-06T10:25:25;3.75;;;1.08;;
51122;SDS011;37162;41.724;13.346;2023-08-06T10:30:26;1.67;;;1.05;;
51122;SDS011;37162;41.724;13.346;2023-08-06T10:32:57;3.00;;;1.02;;
51122;SDS011;37162;41.724;13.346;2023-08-06T10:40:23;21.45;;;1.92;;
51122;SDS011;37162;41.724;13.346;2023-08-06T10:42:49;10.48;;;1.50;;
51122;SDS011;37162;41.724;13.346;2023-08-06T10:45:15;11.48;;;1.58;;
51122;SDS011;37162;41.724;13.346;2023-08-06T10:47:42;11.27;;;1.77;;
51122;SDS011;37162;41.724;13.346;2023-08-06T10:50:11;8.07;;;1.92;;
51122;SDS011;37162;41.724;13.346;2023-08-06T10:52:38;3.42;;;1.83;;
51122;SDS011;37162;41.724;13.346;2023-08-06T10:55:04;2.67;;;1.50;;
51122;SDS011;37162;41.724;13.346;2023-08-06T10:57:29;6.72;;;1.40;;
51122;SDS011;37162;41.724;13.346;2023-08-06T10:59:55;7.13;;;1.60;;
51122;SDS011;37162;41.724;13.346;2023-08-06T11:02:20;5.78;;;1.42;;
51122;SDS011;37162;41.724;13.346;2023-08-06T11:04:46;9.35;;;1.70;;
51122;SDS011;37162;41.724;13.346;2023-08-06T11:07:13;5.43;;;1.83;;
51122;SDS011;37162;41.724;13.346;2023-08-06T11:09:39;2.65;;;1.40;;
51122;SDS011;37162;41.724;13.346;2023-08-06T11:12:10;5.20;;;1.45;;
51122;SDS011;37162;41.724;13.346;2023-08-06T11:14:36;10.52;;;2.40;;
51122;SDS011;37162;41.724;13.346;2023-08-06T11:17:02;1.70;;;1.10;;
51122;SDS011;37162;41.724;13.346;2023-08-06T11:19:27;6.93;;;1.60;;
51122;SDS011;37162;41.724;13.346;2023-08-06T11:21:54;4.95;;;1.60;;
51122;SDS011;37162;41.724;13.346;2023-08-06T11:24:19;4.88;;;1.70;;
51122;SDS011;37162;41.724;13.346;2023-08-06T11:26:45;5.13;;;1.50;;
51122;SDS011;37162;41.724;13.346;2023-08-06T11:29:11;6.25;;;2.08;;
51122;SDS011;37162;41.724;13.346;2023-08-06T11:31:36;5.88;;;1.70;;
51122;SDS011;37162;41.724;13.346;2023-08-06T11:34:02;3.47;;;1.65;;
51122;SDS011;37162;41.724;13.346;2023-08-06T11:36:30;4.78;;;2.08;;
51122;SDS011;37162;41.724;13.346;2023-08-06T11:38:57;3.58;;;1.48;;
51122;SDS011;37162;41.724;13.346;2023-08-06T11:41:28;4.13;;;1.50;;
51122;SDS011;37162;41.724;13.346;2023-08-06T11:43:54;4.13;;;1.35;;
51122;SDS011;37162;41.724;13.346;2023-08-06T11:46:19;5.50;;;1.70;;
51122;SDS011;37162;41.724;13.346;2023-08-06T11:48:54;10.63;;;2.20;;
51122;SDS011;37162;41.724;13.346;2023-08-06T11:51:24;7.40;;;1.80;;
51122;SDS011;37162;41.724;13.346;2023-08-06T11:53:56;11.93;;;1.67;;
51122;SDS011;37162;41.724;13.346;2023-08-06T11:56:22;6.72;;;1.67;;
51122;SDS011;37162;41.724;13.346;2023-08-06T11:58:49;4.28;;;1.42;;
51122;SDS011;37162;41.724;13.346;2023-08-06T12:01:14;7.70;;;2.28;;
51122;SDS011;37162;41.724;13.346;2023-08-06T12:03:40;4.55;;;1.77;;
51122;SDS011;37162;41.724;13.346;2023-08-06T12:06:06;7.75;;;2.35;;
51122;SDS011;37162;41.724;13.346;2023-08-06T12:08:34;3.83;;;1.63;;
51122;SDS011;37162;41.724;13.346;2023-08-06T12:11:00;6.00;;;1.65;;
51122;SDS011;37162;41.724;13.346;2023-08-06T12:13:41;5.78;;;2.35;;
51122;SDS011;37162;41.724;13.346;2023-08-06T12:16:35;6.82;;;1.90;;
51122;SDS011;37162;41.724;13.346;2023-08-06T12:19:34;6.53;;;1.50;;
51122;SDS011;37162;41.724;13.346;2023-08-06T12:22:19;7.88;;;2.35;;
51122;SDS011;37162;41.724;13.346;2023-08-06T12:24:45;3.00;;;1.48;;
51122;SDS011;37162;41.724;13.346;2023-08-06T12:27:12;7.13;;;1.80;;
51122;SDS011;37162;41.724;13.346;2023-08-06T12:29:42;3.83;;;1.73;;
51122;SDS011;37162;41.724;13.346;2023-08-06T12:32:35;5.00;;;1.67;;
51122;SDS011;37162;41.724;13.346;2023-08-06T12:35:14;5.03;;;1.90;;
51122;SDS011;37162;41.724;13.346;2023-08-06T12:37:39;3.60;;;1.60;;
51122;SDS011;37162;41.724;13.346;2023-08-06T12:40:05;4.95;;;1.98;;
51122;SDS011;37162;41.724;13.346;2023-08-06T12:42:31;3.35;;;1.60;;
51122;SDS011;37162;41.724;13.346;2023-08-06T12:44:56;5.05;;;1.70;;
51122;SDS011;37162;41.724;13.346;2023-08-06T12:47:22;3.25;;;1.52;;
51122;SDS011;37162;41.724;13.346;2023-08-06T12:49:47;4.50;;;1.88;;
51122;SDS011;37162;41.724;13.346;2023-08-06T12:52:14;2.58;;;1.48;;
51122;SDS011;37162;41.724;13.346;2023-08-06T12:54:40;4.15;;;1.63;;
51122;SDS011;37162;41.724;13.346;2023-08-06T12:57:06;4.30;;;1.55;;
51122;SDS011;37162;41.724;13.346;2023-08-06T12:59:31;3.95;;;1.77;;
51122;SDS011;37162;41.724;13.346;2023-08-06T13:01:58;5.40;;;1.73;;
51122;SDS011;37162;41.724;13.346;2023-08-06T13:04:24;3.67;;;1.48;;
51122;SDS011;37162;41.724;13.346;2023-08-06T13:06:49;4.63;;;1.70;;
51122;SDS011;37162;41.724;13.346;2023-08-06T13:09:15;5.50;;;1.55;;
51122;SDS011;37162;41.724;13.346;2023-08-06T13:11:40;4.10;;;1.70;;
51122;SDS011;37162;41.724;13.346;2023-08-06T13:14:07;3.42;;;1.40;;
51122;SDS011;37162;41.724;13.346;2023-08-06T13:16:37;6.38;;;1.73;;
51122;SDS011;37162;41.724;13.346;2023-08-06T13:19:04;3.65;;;1.58;;
51122;SDS011;37162;41.724;13.346;2023-08-06T13:21:34;7.00;;;1.88;;
51122;SDS011;37162;41.724;13.346;2023-08-06T13:24:16;7.13;;;2.10;;
51122;SDS011;37162;41.724;13.346;2023-08-06T13:26:42;4.50;;;1.50;;
51122;SDS011;37162;41.724;13.346;2023-08-06T13:29:19;6.05;;;1.80;;
51122;SDS011;37162;41.724;13.346;2023-08-06T13:32:02;2.83;;;1.23;;
51122;SDS011;37162;41.724;13.346;2023-08-06T13:34:39;3.80;;;1.80;;
51122;SDS011;37162;41.724;13.346;2023-08-06T13:37:27;3.63;;;1.33;;
51122;SDS011;37162;41.724;13.346;2023-08-06T13:43:00;3.45;;;1.45;;
51122;SDS011;37162;41.724;13.346;2023-08-06T13:45:26;5.13;;;1.70;;
51122;SDS011;37162;41.724;13.346;2023-08-06T13:50:56;4.63;;;1.88;;
51122;SDS011;37162;41.724;13.346;2023-08-06T13:53:30;4.20;;;1.70;;
51122;SDS011;37162;41.724;13.346;2023-08-06T13:56:32;3.00;;;1.63;;
51122;SDS011;37162;41.724;13.346;2023-08-06T13:59:24;5.07;;;1.58;;
51122;SDS011;37162;41.724;13.346;2023-08-06T14:05:19;5.95;;;1.55;;
51122;SDS011;37162;41.724;13.346;2023-08-06T14:08:14;3.83;;;1.70;;
51122;SDS011;37162;41.724;13.346;2023-08-06T14:10:56;3.08;;;1.35;;
51122;SDS011;37162;41.724;13.346;2023-08-06T14:16:28;3.45;;;1.30;;
51122;SDS011;37162;41.724;13.346;2023-08-06T14:19:47;2.83;;;1.60;;
51122;SDS011;37162;41.724;13.346;2023-08-06T14:22:33;4.53;;;1.90;;
51122;SDS011;37162;41.724;13.346;2023-08-06T14:25:09;3.13;;;1.63;;
51122;SDS011;37162;41.724;13.346;2023-08-06T14:28:06;6.60;;;1.60;;
51122;SDS011;37162;41.724;13.346;2023-08-06T14:30:47;2.92;;;1.58;;
51122;SDS011;37162;41.724;13.346;2023-08-06T14:33:12;4.38;;;1.85;;
51122;SDS011;37162;41.724;13.346;2023-08-06T14:35:38;2.53;;;1.33;;
51122;SDS011;37162;41.724;13.346;2023-08-06T14:38:04;7.50;;;1.70;;
51122;SDS011;37162;41.724;13.346;2023-08-06T14:40:30;3.60;;;1.42;;
51122;SDS011;37162;41.724;13.346;2023-08-06T14:43:00;3.80;;;1.33;;
51122;SDS011;37162;41.724;13.346;2023-08-06T14:45:26;3.15;;;1.20;;
51122;SDS011;37162;41.724;13.346;2023-08-06T14:47:52;3.78;;;1.88;;
51122;SDS011;37162;41.724;13.346;2023-08-06T14:50:17;9.63;;;1.85;;
51122;SDS011;37162;41.724;13.346;2023-08-06T14:52:42;5.32;;;1.65;;
51122;SDS011;37162;41.724;13.346;2023-08-06T14:55:08;2.83;;;1.58;;
51122;SDS011;37162;41.724;13.346;2023-08-06T14:57:33;1.98;;;1.00;;
51122;SDS011;37162;41.724;13.346;2023-08-06T14:59:59;5.88;;;1.60;;
51122;SDS011;37162;41.724;13.346;2023-08-06T15:02:25;3.72;;;1.42;;
51122;SDS011;37162;41.724;13.346;2023-08-06T15:04:51;2.85;;;1.25;;
51122;SDS011;37162;41.724;13.346;2023-08-06T15:07:17;3.42;;;1.38;;
51122;SDS011;37162;41.724;13.346;2023-08-06T15:09:42;3.22;;;1.50;;
51122;SDS011;37162;41.724;13.346;2023-08-06T15:12:08;3.05;;;1.52;;
51122;SDS011;37162;41.724;13.346;2023-08-06T15:14:33;4.75;;;1.38;;
51122;SDS011;37162;41.724;13.346;2023-08-06T15:16:59;5.28;;;2.47;;